Aktualne dane pomiarowe

Uwaga, wersja testowa! Automatyczne pobieranie danych za pomocą narzędzi lub skryptów to umożliwiających jest zabronione.

Dane meteo z obszaru Polski uzyskane na podstawie depesz SYNOP pobieranych co godzinę z NWS. Najedź myszką na symbol przedstawiony w tabeli, aby uzyskać informacje co do jego znaczenia. Prosimy pamiętać, że to testowa wersja strony, która jeszcze nie jest ukończona. Stworzono również jest krótki FAQ dotyczący korzystania z tej podstrony Anomalie temperatury w chwili obecnej odniesione są do okresu referencyjnego 1951-2016. Okres ten będzie później zmieniony na 1981-2010. Kliknij ikonę aby pobrać plik CSV. Kliknij ikonę aby wygenerować mapę synoptyczną dla danego terminu.

Wybierz Datę:    

        

Częstochowa (12550)

Dane terminowe dla wybranej stacji. Kliknij datę, aby otrzymać dane z tego terminu dla wszystkich stacji.

TemperaturaZachmurzenieWiatrCiśnienieOpadyPogoda
 Data t td wb tx tn tg rh  Nt Nl Cl Cm Ch ws wd g1 g2 wx mslp ppp ch 24h 12h t ww ww w1 w2  
2019-09-22 23:00:00 10.9 8.1 9.1--- 8310.0--1wx--11016.3 980.8 0.0---------
2019-09-22 22:00:00 11.9 8.2 9.6--- 7811.0--2wx--21016.0 980.7 -0.1---------
2019-09-22 21:00:00 11.4 8.4 9.5--- 826.0--1wx--11016.0 980.6 -0.2---wx-----
2019-09-22 20:00:00 12.6 8.3 9.9--- 757.0--1wx--11016.1 980.8 0.1---wx-----
2019-09-22 19:00:00 13.9 8.1 10.4--- 6813.0--1wx--11015.9 980.8 0.2---------
2019-09-22 18:00:00 14.9 7.4 10.5 21.1 8.4- 6124.0--1wx--11015.8 980.8 0.0- 0.012------
2019-09-22 17:00:00 16.5 7.7 11.4--- 5616.0--1wx--11015.5 980.7 -0.4---------
2019-09-22 16:00:00 18.9 6.7 12.1--- 4530.0--1wx--11015.1 980.6 -1.2---------
2019-09-22 15:00:00 20.3 6.2 12.5--- 4035.0--2wx--21015.1 980.8 -1.9---------
2019-09-22 14:00:00 20.8 5.6 12.5--- 3740.0--2wx--21015.4 981.1 -2.2---------
2019-09-22 13:00:00 20.6 4.6 12.1--- 3525.0--2wx--21016.1 981.8 -2.1---------
2019-09-22 12:00:00 20.2 6.2 12.5--- 4035.0--3wx-1331017.1 982.7 -1.7- 0.06------
2019-09-22 11:00:00 19.4 5.1 11.7--- 3929.0--3wx--31017.8 983.3 -1.5---------
2019-09-22 10:00:00 18.2 4.7 11.0--- 4129.0--3wx-831018.6 983.9 -1.0---------
2019-09-22 09:00:00 17.1 5.7 10.8--- 4723.0--3wx131331019.2 984.4 -0.6---------
2019-09-22 08:00:00 15.2 4.5 9.4--- 4924.0--3wx9931019.9 984.8 -0.3---------
2019-09-22 07:00:00 12.2 6.2 8.7--- 6722.0--2wx---1020.4 984.9 -0.3---------
2019-09-22 06:00:00 8.4 5.0 6.3 12.3 6.8 5 799.0--2wx--21021.0 985.0 -0.4- 0.012----- 10.0
2019-09-22 05:00:00 7.1 4.6 5.5--- 8410.0--2wx--21021.2 985.1 -0.7---wx-----
2019-09-22 04:00:00 7.0 4.6 5.5--- 859.0--2wx--21021.3 985.2 -1.0---------
2019-09-22 03:00:00 7.2 4.7 5.6--- 8412.0--2wx--21021.5 985.4 -0.8---------
2019-09-22 02:00:00 8.0 4.6 5.9--- 7918.0--1wx--11021.8 985.8 -0.5---------
2019-09-22 01:00:00 8.7 4.9 6.4--- 7721.0--1wx--11022.2 986.2 -0.4---------
2019-09-22 00:00:00 9.3 5.1 6.8--- 7519.0--2wx--21022.1 986.2 -0.6- 0.06------
2019-09-21 23:00:00 9.9 5.3 7.2--- 7319.0--2wx--21022.1 986.3 -0.8---------
2019-09-21 22:00:00 10.0 5.8 7.5--- 7514.0--2wx--21022.4 986.6 -0.7---------
2019-09-21 21:00:00 10.0 6.3 7.7--- 7811.0--2wx--21022.6 986.8 -0.7---------
2019-09-21 20:00:00 10.5 6.8 8.2--- 7810.0--1wx--11022.9 987.1 -0.3---------
2019-09-21 19:00:00 11.3 7.0 8.7--- 756.0--1wx--11023.0 987.3 -0.1---wx-----
2019-09-21 18:00:00 12.3 6.6 8.9 17.7 7.4- 6817.0--1wx--11023.0 987.5 0.0- 0.012------
2019-09-21 17:00:00 13.8 6.6 9.6--- 6221.0--0---01022.8 987.4 -0.6---------
2019-09-21 16:00:00 16.0 6.4 10.6--- 5345.0--1wx--11022.5 987.4 -1.3---------
2019-09-21 15:00:00 16.9 6.4 11.0--- 5040.0--2wx--21022.5 987.5 -1.8---------
2019-09-21 14:00:00 17.4 6.0 11.1--- 4726.0--2wx---1022.9 988.0 -1.8---------
2019-09-21 13:00:00 17.2 5.5 10.8--- 4630.0--2wx--21023.7 988.7 -1.3---------
2019-09-21 12:00:00 16.8 6.3 10.9--- 5035.0--2wx-721024.3 989.3 -1.2- 0.06------
2019-09-21 11:00:00 16.4 6.2 10.7--- 5129.0--2wx--21024.9 989.8 -0.7---------
2019-09-21 10:00:00 15.2 6.5 10.3--- 5630.0--3wx--31025.3 990.0 -0.5---------
2019-09-21 09:00:00 13.7 6.1 9.4--- 6030.0--3wx-731026.0 990.5 -0.2---------
2019-09-21 08:00:00 12.9 6.7 9.3--- 6630.0--2wx--21026.1 990.5 0.1---------
2019-09-21 07:00:00 9.4 6.1 7.3--- 8021.0--1wx--11026.5 990.5 0.3---------
2019-09-21 06:00:00 7.4 4.7 5.7 10.1 5.9 5 8319.0--1wx--11027.0 990.7 0.6- 0.012----- 5.7
2019-09-21 05:00:00 6.9 4.7 5.5--- 8616.0--2wx--21026.7 990.4 0.0---------
2019-09-21 04:00:00 6.9 4.9 5.6--- 8715.0--1wx---1026.5 990.2 -0.5---------
2019-09-21 03:00:00 6.0 4.2 4.8--- 8816.0--1wx--11026.6 990.1 -0.6---------
2019-09-21 02:00:00 6.4 4.4 5.1--- 8714.0--1wx--11026.8 990.4 -0.6---------
2019-09-21 01:00:00 6.3 4.5 5.1--- 8814.0--1wx--11027.1 990.7 -0.4---------
2019-09-21 00:00:00 6.7 4.4 5.2--- 8513.0--1wx--11027.1 990.7 -0.5- 0.06------
2.6 ms

 

Print Friendly, PDF & Email